Aérodrome :
LOGIN :

S'inscrire | Disclaimer

   EN    FR    IT 

 










Légende :    VFR   VFR Marginal   IFR   IFR Intensif   IFR Très Intensif
Visi : 
Plafond : 
>= 8 km
>= 3000ft
5 à 8 km
1000 à 3000 ft
1500m à 5 km
500 à 1000 ft
800 à 1500m
200 à 500 ft
< 800m
< 200 ft
Symboles :   Orages  Brouillard  Fortes neiges  Fortes précipitations  Vent > 20 kt
SIGMETs :   Divers  Orages  Givrage  Turbulence  Onde Orograph.  Cendres Volcan.






- Altitude de l'aérodrome : 1339 ft


ETHN - Niederstetten

DERNIER METAR :
  • 200920Z 08005KT 9000 FEW006 02/00 Q1044 BLU+BLU+

METARs EXPIRÉS :
  • 200839Z 08005KT 8000 FEW042 01/00 Q1044 BLU+BLU TEMPO YLO
  • 200820Z 08004KT 5000 BR FEW002 SCT040 01/00 Q1044 WHT BLU TEMPO YLO
  • 200802Z 07004KT 3000 BR FEW002 SCT040 00/M00 Q1044 YLO BLU TEMPO YLO
  • 200727Z 09002KT 4000 BR FEW002 SCT043 M01/M01 Q1043 GRN BLU TEMPO GRN
  • 200639Z 04006KT 6000 BKN043 00/M00 Q1043 WHT BLU TEMPO WHT

TAF COR TAF ETHN
Valide du 20 à 09h jusqu'au 20 à 18h UTC


200836Z 2009/2018 05008KT 9999 NSW BKN040
TEMPO 2009/2010 05008KT 3000 BR FEW002



MET'MAP, la Météo Aéronautique d'un coup d'oeil ! - Copyright ORBIFLY Décembre 2007 - Disclaimer

ORBIFLY MET'MAP TEAM :

Programmation & Développement : Alexandra Zaïnal
Sur une idée originale de : Baudouin d'Aumeries
Assistance à la programmation : Marc-Olivier Méhu
Soutien technique & logistique : Manuel Goepfert

Contact : metmap@orbifly.com




SOURCES & CREDITS :

   NOAA